sensor_id;sensor_type;location;lat;lon;timestamp;pressure;altitude;pressure_sealevel;temperature;humidity
51297;BME280;37380;45.186;9.792;2022-09-01T07:18:47;100817.31;;;27.40;97.73
51297;BME280;37380;45.186;9.792;2022-09-01T07:21:25;100829.66;;;28.24;91.13
51297;BME280;37380;45.186;9.792;2022-09-01T07:24:14;100826.75;;;27.25;95.22
51297;BME280;37380;45.186;9.792;2022-09-01T07:27:03;100827.16;;;27.41;93.01
51297;BME280;37380;45.186;9.792;2022-09-01T07:29:35;100840.66;;;28.41;88.91
51297;BME280;37380;45.186;9.792;2022-09-01T07:32:03;100833.34;;;28.46;84.91
51297;BME280;37380;45.186;9.792;2022-09-01T07:34:50;100828.75;;;28.25;85.58
51297;BME280;37380;45.186;9.792;2022-09-01T07:37:20;100830.22;;;29.26;80.67
51297;BME280;37380;45.186;9.792;2022-09-01T07:40:10;100827.28;;;29.54;79.63
51297;BME280;37380;45.186;9.792;2022-09-01T07:43:24;100830.56;;;29.18;82.25
51297;BME280;37380;45.186;9.792;2022-09-01T07:46:37;100825.81;;;29.01;82.56
51297;BME280;37380;45.186;9.792;2022-09-01T07:49:09;100821.63;;;30.03;80.19
51297;BME280;37380;45.186;9.792;2022-09-01T07:52:17;100827.97;;;29.59;79.54
51297;BME280;37380;45.186;9.792;2022-09-01T07:55:07;100833.19;;;30.25;76.13
51297;BME280;37380;45.186;9.792;2022-09-01T07:57:40;100834.97;;;30.26;76.53
51297;BME280;37380;45.186;9.792;2022-09-01T08:00:14;100834.38;;;28.89;80.70
51297;BME280;37380;45.186;9.792;2022-09-01T08:03:12;100837.38;;;29.27;78.21
51297;BME280;37380;45.186;9.792;2022-09-01T08:05:46;100841.78;;;27.85;85.32
51297;BME280;37380;45.186;9.792;2022-09-01T08:08:50;100841.41;;;26.85;87.39
51297;BME280;37380;45.186;9.792;2022-09-01T08:11:45;100844.31;;;27.90;84.76
51297;BME280;37380;45.186;9.792;2022-09-01T08:14:32;100850.03;;;27.24;91.52
51297;BME280;37380;45.186;9.792;2022-09-01T08:17:06;100844.34;;;27.88;84.49
51297;BME280;37380;45.186;9.792;2022-09-01T08:20:20;100850.88;;;28.31;82.46
51297;BME280;37380;45.186;9.792;2022-09-01T08:23:08;100845.63;;;28.28;83.61
51297;BME280;37380;45.186;9.792;2022-09-01T08:25:36;100851.34;;;28.67;80.72
51297;BME280;37380;45.186;9.792;2022-09-01T08:28:04;100848.38;;;29.43;75.96
51297;BME280;37380;45.186;9.792;2022-09-01T08:30:39;100853.28;;;28.64;83.62
51297;BME280;37380;45.186;9.792;2022-09-01T08:33:37;100849.03;;;29.27;77.78
51297;BME280;37380;45.186;9.792;2022-09-01T08:36:06;100852.47;;;27.87;83.37
51297;BME280;37380;45.186;9.792;2022-09-01T08:38:33;100855.00;;;28.16;79.00
51297;BME280;37380;45.186;9.792;2022-09-01T08:41:00;100850.06;;;28.78;75.50
51297;BME280;37380;45.186;9.792;2022-09-01T08:43:36;100846.16;;;29.52;70.81
51297;BME280;37380;45.186;9.792;2022-09-01T08:46:18;100857.25;;;28.54;74.77
51297;BME280;37380;45.186;9.792;2022-09-01T08:49:18;100844.03;;;27.44;79.02
51297;BME280;37380;45.186;9.792;2022-09-01T08:52:28;100858.34;;;28.23;76.59
51297;BME280;37380;45.186;9.792;2022-09-01T08:55:14;100852.38;;;27.62;77.84
51297;BME280;37380;45.186;9.792;2022-09-01T08:57:45;100858.53;;;27.39;78.24
51297;BME280;37380;45.186;9.792;2022-09-01T09:00:27;100860.88;;;28.28;75.80
51297;BME280;37380;45.186;9.792;2022-09-01T09:03:45;100860.78;;;27.77;77.06
51297;BME280;37380;45.186;9.792;2022-09-01T09:06:53;100859.56;;;29.32;69.67
51297;BME280;37380;45.186;9.792;2022-09-01T09:09:24;100862.78;;;28.49;70.33
51297;BME280;37380;45.186;9.792;2022-09-01T09:17:08;100857.19;;;28.79;66.84
51297;BME280;37380;45.186;9.792;2022-09-01T09:19:37;100852.00;;;28.74;66.60
51297;BME280;37380;45.186;9.792;2022-09-01T09:22:13;100856.69;;;28.44;68.65
51297;BME280;37380;45.186;9.792;2022-09-01T09:25:16;100854.00;;;28.91;69.73
51297;BME280;37380;45.186;9.792;2022-09-01T09:28:10;100859.03;;;29.46;66.28
51297;BME280;37380;45.186;9.792;2022-09-01T09:30:38;100863.59;;;29.88;63.33
51297;BME280;37380;45.186;9.792;2022-09-01T09:33:05;100862.88;;;29.61;66.65
51297;BME280;37380;45.186;9.792;2022-09-01T09:35:56;100861.91;;;29.63;63.11
51297;BME280;37380;45.186;9.792;2022-09-01T09:38:40;100864.41;;;28.03;71.06
51297;BME280;37380;45.186;9.792;2022-09-01T09:46:22;100860.47;;;28.63;72.90
51297;BME280;37380;45.186;9.792;2022-09-01T09:49:11;100857.56;;;29.81;67.42
51297;BME280;37380;45.186;9.792;2022-09-01T09:51:47;100852.00;;;30.86;63.09
51297;BME280;37380;45.186;9.792;2022-09-01T09:55:04;100850.59;;;30.97;60.41
51297;BME280;37380;45.186;9.792;2022-09-01T09:57:59;100852.31;;;31.17;59.94
51297;BME280;37380;45.186;9.792;2022-09-01T10:00:28;100845.38;;;30.73;61.93
51297;BME280;37380;45.186;9.792;2022-09-01T10:02:57;100838.81;;;31.35;59.08
51297;BME280;37380;45.186;9.792;2022-09-01T10:05:38;100835.59;;;31.46;60.49
51297;BME280;37380;45.186;9.792;2022-09-01T10:08:42;100831.63;;;31.34;59.34
51297;BME280;37380;45.186;9.792;2022-09-01T10:11:48;100831.44;;;30.44;59.56
51297;BME280;37380;45.186;9.792;2022-09-01T10:14:25;100832.22;;;28.75;67.19
51297;BME280;37380;45.186;9.792;2022-09-01T10:17:33;100831.56;;;29.16;65.87
51297;BME280;37380;45.186;9.792;2022-09-01T10:20:09;100833.16;;;29.64;63.94
51297;BME280;37380;45.186;9.792;2022-09-01T10:22:38;100825.78;;;30.30;60.70
51297;BME280;37380;45.186;9.792;2022-09-01T10:25:07;100830.41;;;30.66;58.41
51297;BME280;37380;45.186;9.792;2022-09-01T10:27:36;100825.97;;;30.46;58.70
51297;BME280;37380;45.186;9.792;2022-09-01T10:30:11;100825.50;;;29.95;57.21
51297;BME280;37380;45.186;9.792;2022-09-01T10:32:47;100825.97;;;27.76;65.79
51297;BME280;37380;45.186;9.792;2022-09-01T10:35:28;100822.00;;;27.88;65.51
51297;BME280;37380;45.186;9.792;2022-09-01T10:38:05;100819.84;;;27.97;65.16
51297;BME280;37380;45.186;9.792;2022-09-01T10:41:06;100821.94;;;28.63;63.29
51297;BME280;37380;45.186;9.792;2022-09-01T10:44:10;100822.16;;;29.04;61.43
51297;BME280;37380;45.186;9.792;2022-09-01T10:46:42;100824.38;;;29.38;59.14
51297;BME280;37380;45.186;9.792;2022-09-01T10:55:37;100814.44;;;28.95;59.19
51297;BME280;37380;45.186;9.792;2022-09-01T10:58:11;100820.31;;;28.10;63.20
51297;BME280;37380;45.186;9.792;2022-09-01T11:01:07;100827.22;;;28.41;65.34
51297;BME280;37380;45.186;9.792;2022-09-01T11:16:43;100813.69;;;29.99;54.90
51297;BME280;37380;45.186;9.792;2022-09-01T11:22:02;100822.47;;;28.24;65.53
51297;BME280;37380;45.186;9.792;2022-09-01T11:30:30;100814.47;;;29.81;59.30
51297;BME280;37380;45.186;9.792;2022-09-01T11:33:04;100822.09;;;29.05;61.70
51297;BME280;37380;45.186;9.792;2022-09-01T11:35:37;100811.00;;;28.67;61.19
51297;BME280;37380;45.186;9.792;2022-09-01T11:38:04;100817.41;;;28.16;60.73
51297;BME280;37380;45.186;9.792;2022-09-01T11:40:34;100808.78;;;28.79;58.62
51297;BME280;37380;45.186;9.792;2022-09-01T11:43:13;100808.81;;;29.23;56.51
51297;BME280;37380;45.186;9.792;2022-09-01T11:46:07;100808.13;;;29.62;54.62
51297;BME280;37380;45.186;9.792;2022-09-01T11:48:37;100807.25;;;28.25;60.16
51297;BME280;37380;45.186;9.792;2022-09-01T11:51:11;100792.56;;;29.04;57.79
51297;BME280;37380;45.186;9.792;2022-09-01T11:54:06;100794.09;;;28.87;59.23
51297;BME280;37380;45.186;9.792;2022-09-01T11:57:15;100792.16;;;27.70;59.72
51297;BME280;37380;45.186;9.792;2022-09-01T11:59:48;100798.81;;;27.85;62.73
51297;BME280;37380;45.186;9.792;2022-09-01T12:02:47;100792.44;;;28.61;68.87
51297;BME280;37380;45.186;9.792;2022-09-01T12:05:28;100790.53;;;28.40;58.78
51297;BME280;37380;45.186;9.792;2022-09-01T12:08:22;100801.53;;;28.34;61.40
51297;BME280;37380;45.186;9.792;2022-09-01T12:10:49;100804.75;;;28.18;60.21
51297;BME280;37380;45.186;9.792;2022-09-01T12:13:18;100793.50;;;28.57;58.75
51297;BME280;37380;45.186;9.792;2022-09-01T12:16:19;100792.00;;;28.72;55.50
51297;BME280;37380;45.186;9.792;2022-09-01T12:18:55;100790.66;;;28.84;58.31
51297;BME280;37380;45.186;9.792;2022-09-01T12:21:29;100791.91;;;28.97;57.82
51297;BME280;37380;45.186;9.792;2022-09-01T12:24:18;100793.59;;;28.06;59.18
51297;BME280;37380;45.186;9.792;2022-09-01T12:26:43;100800.81;;;28.04;58.08
51297;BME280;37380;45.186;9.792;2022-09-01T12:29:11;100798.06;;;28.30;60.42
51297;BME280;37380;45.186;9.792;2022-09-01T12:31:42;100786.22;;;28.83;56.08
51297;BME280;37380;45.186;9.792;2022-09-01T12:37:22;100774.06;;;28.26;62.22
51297;BME280;37380;45.186;9.792;2022-09-01T12:39:51;100776.22;;;27.91;64.23
51297;BME280;37380;45.186;9.792;2022-09-01T12:50:43;100774.22;;;28.46;61.16
51297;BME280;37380;45.186;9.792;2022-09-01T12:53:53;100733.78;;;27.50;59.25
51297;BME280;37380;45.186;9.792;2022-09-01T12:56:48;100778.53;;;27.23;60.77
51297;BME280;37380;45.186;9.792;2022-09-01T12:59:21;100774.56;;;27.62;61.40
51297;BME280;37380;45.186;9.792;2022-09-01T13:04:47;100781.22;;;28.02;60.66
51297;BME280;37380;45.186;9.792;2022-09-01T13:07:14;100773.72;;;28.35;60.51
51297;BME280;37380;45.186;9.792;2022-09-01T13:09:41;100773.25;;;28.47;61.47
51297;BME280;37380;45.186;9.792;2022-09-01T13:12:09;100774.06;;;28.26;67.42
51297;BME280;37380;45.186;9.792;2022-09-01T13:14:42;100769.56;;;28.26;61.04
51297;BME280;37380;45.186;9.792;2022-09-01T13:17:40;100768.81;;;27.72;62.42
51297;BME280;37380;45.186;9.792;2022-09-01T13:20:06;100757.34;;;27.67;61.93
51297;BME280;37380;45.186;9.792;2022-09-01T13:22:34;100767.44;;;27.61;62.37
51297;BME280;37380;45.186;9.792;2022-09-01T13:25:01;100765.34;;;27.69;58.63
51297;BME280;37380;45.186;9.792;2022-09-01T13:27:28;100762.00;;;28.12;58.63
51297;BME280;37380;45.186;9.792;2022-09-01T13:30:02;100763.53;;;28.19;60.95
51297;BME280;37380;45.186;9.792;2022-09-01T13:32:56;100759.88;;;28.69;57.34
51297;BME280;37380;45.186;9.792;2022-09-01T13:35:43;100759.50;;;27.83;60.75
51297;BME280;37380;45.186;9.792;2022-09-01T13:38:10;100760.66;;;27.75;61.41
51297;BME280;37380;45.186;9.792;2022-09-01T13:41:08;100759.69;;;28.50;58.01
51297;BME280;37380;45.186;9.792;2022-09-01T13:43:49;100757.53;;;29.05;55.72
51297;BME280;37380;45.186;9.792;2022-09-01T13:46:15;100758.56;;;29.23;56.63
51297;BME280;37380;45.186;9.792;2022-09-01T13:48:43;100760.16;;;29.49;56.66
51297;BME280;37380;45.186;9.792;2022-09-01T13:51:36;100750.50;;;29.86;54.45
51297;BME280;37380;45.186;9.792;2022-09-01T13:54:31;100742.09;;;29.31;55.91
51297;BME280;37380;45.186;9.792;2022-09-01T13:56:57;100748.19;;;28.92;54.98
51297;BME280;37380;45.186;9.792;2022-09-01T13:59:31;100744.81;;;28.87;56.83
51297;BME280;37380;45.186;9.792;2022-09-01T14:02:34;100745.69;;;28.65;60.54
51297;BME280;37380;45.186;9.792;2022-09-01T14:05:37;100749.63;;;28.57;58.60
51297;BME280;37380;45.186;9.792;2022-09-01T14:08:08;100755.84;;;28.10;58.61
51297;BME280;37380;45.186;9.792;2022-09-01T14:10:37;100740.59;;;27.86;60.21
51297;BME280;37380;45.186;9.792;2022-09-01T14:13:04;100750.47;;;28.10;60.51
51297;BME280;37380;45.186;9.792;2022-09-01T14:15:37;100735.84;;;28.64;58.38
51297;BME280;37380;45.186;9.792;2022-09-01T14:18:32;100729.63;;;28.86;58.14
51297;BME280;37380;45.186;9.792;2022-09-01T14:21:12;100725.38;;;28.80;60.69
51297;BME280;37380;45.186;9.792;2022-09-01T14:24:07;100721.94;;;28.30;60.36
51297;BME280;37380;45.186;9.792;2022-09-01T14:26:33;100725.69;;;28.26;58.50
51297;BME280;37380;45.186;9.792;2022-09-01T14:29:07;100724.03;;;28.21;59.25
51297;BME280;37380;45.186;9.792;2022-09-01T14:32:02;100715.13;;;28.21;61.07
51297;BME280;37380;45.186;9.792;2022-09-01T14:34:28;100720.38;;;28.71;58.56
51297;BME280;37380;45.186;9.792;2022-09-01T14:37:02;100719.13;;;27.86;62.11
51297;BME280;37380;45.186;9.792;2022-09-01T14:39:56;100719.97;;;27.88;60.89
51297;BME280;37380;45.186;9.792;2022-09-01T14:42:24;100718.00;;;28.16;59.01
51297;BME280;37380;45.186;9.792;2022-09-01T14:44:51;100715.91;;;28.25;60.10
51297;BME280;37380;45.186;9.792;2022-09-01T14:47:19;100714.84;;;28.05;61.40
51297;BME280;37380;45.186;9.792;2022-09-01T14:49:53;100714.47;;;28.61;58.67
51297;BME280;37380;45.186;9.792;2022-09-01T14:52:48;100713.28;;;28.21;60.81
51297;BME280;37380;45.186;9.792;2022-09-01T14:55:15;100711.66;;;28.42;60.28
51297;BME280;37380;45.186;9.792;2022-09-01T14:57:42;100714.09;;;28.71;61.71
51297;BME280;37380;45.186;9.792;2022-09-01T15:00:10;100713.22;;;28.92;59.95
51297;BME280;37380;45.186;9.792;2022-09-01T15:02:38;100701.84;;;29.07;57.93
51297;BME280;37380;45.186;9.792;2022-09-01T15:05:12;100707.59;;;28.54;60.03
51297;BME280;37380;45.186;9.792;2022-09-01T15:08:13;100705.22;;;28.91;59.12
51297;BME280;37380;45.186;9.792;2022-09-01T15:11:09;100703.59;;;28.86;57.11
51297;BME280;37380;45.186;9.792;2022-09-01T15:13:43;100704.19;;;28.26;59.34
51297;BME280;37380;45.186;9.792;2022-09-01T15:16:38;100712.25;;;28.26;60.02
51297;BME280;37380;45.186;9.792;2022-09-01T15:19:07;100707.53;;;28.09;59.37
51297;BME280;37380;45.186;9.792;2022-09-01T15:21:35;100712.75;;;28.13;60.58
51297;BME280;37380;45.186;9.792;2022-09-01T15:24:03;100708.00;;;28.20;61.84
51297;BME280;37380;45.186;9.792;2022-09-01T15:26:36;100712.03;;;28.55;61.65
51297;BME280;37380;45.186;9.792;2022-09-01T15:29:38;100726.66;;;28.48;61.88
51297;BME280;37380;45.186;9.792;2022-09-01T15:32:35;100713.97;;;28.28;61.92
51297;BME280;37380;45.186;9.792;2022-09-01T15:35:01;100705.81;;;28.53;61.42
51297;BME280;37380;45.186;9.792;2022-09-01T15:37:28;100718.28;;;28.78;59.22
51297;BME280;37380;45.186;9.792;2022-09-01T15:40:02;100719.72;;;28.64;60.01
51297;BME280;37380;45.186;9.792;2022-09-01T15:42:57;100723.75;;;28.29;60.10
51297;BME280;37380;45.186;9.792;2022-09-01T15:45:26;100731.94;;;28.50;58.96
51297;BME280;37380;45.186;9.792;2022-09-01T15:47:54;100726.94;;;28.39;61.21
51297;BME280;37380;45.186;9.792;2022-09-01T15:50:27;100736.78;;;27.93;61.92
51297;BME280;37380;45.186;9.792;2022-09-01T15:53:22;100734.72;;;27.74;63.54
51297;BME280;37380;45.186;9.792;2022-09-01T15:55:53;100731.72;;;27.84;64.05
51297;BME280;37380;45.186;9.792;2022-09-01T15:58:20;100738.53;;;27.94;62.45
51297;BME280;37380;45.186;9.792;2022-09-01T16:01:02;100737.22;;;27.81;63.04
51297;BME280;37380;45.186;9.792;2022-09-01T16:04:04;100734.41;;;27.84;62.59
51297;BME280;37380;45.186;9.792;2022-09-01T16:07:10;100738.53;;;27.94;62.36
51297;BME280;37380;45.186;9.792;2022-09-01T16:10:12;100742.53;;;27.30;64.45
51297;BME280;37380;45.186;9.792;2022-09-01T16:13:13;100733.94;;;27.46;63.84
51297;BME280;37380;45.186;9.792;2022-09-01T16:22:28;100720.59;;;27.44;63.24
51297;BME280;37380;45.186;9.792;2022-09-01T16:24:58;100731.91;;;26.99;62.18
51297;BME280;37380;45.186;9.792;2022-09-01T16:27:28;100738.50;;;27.17;61.22
51297;BME280;37380;45.186;9.792;2022-09-01T16:30:08;100729.47;;;27.20;61.27
51297;BME280;37380;45.186;9.792;2022-09-01T16:32:37;100743.34;;;27.04;62.01
51297;BME280;37380;45.186;9.792;2022-09-01T16:35:04;100739.59;;;27.10;61.20
51297;BME280;37380;45.186;9.792;2022-09-01T16:59:50;100751.69;;;26.67;61.56
51297;BME280;37380;45.186;9.792;2022-09-01T17:05:26;100746.72;;;26.55;60.46
51297;BME280;37380;45.186;9.792;2022-09-01T17:08:29;100750.38;;;26.52;59.67
51297;BME280;37380;45.186;9.792;2022-09-01T17:11:26;100751.34;;;26.50;60.87
51297;BME280;37380;45.186;9.792;2022-09-01T17:14:06;100752.44;;;26.42;60.94
51297;BME280;37380;45.186;9.792;2022-09-01T17:17:16;100751.94;;;26.30;61.01
51297;BME280;37380;45.186;9.792;2022-09-01T17:20:05;100764.47;;;26.28;60.01
51297;BME280;37380;45.186;9.792;2022-09-01T17:22:40;100763.16;;;26.11;61.58
51297;BME280;37380;45.186;9.792;2022-09-01T17:25:49;100759.22;;;25.93;62.54
51297;BME280;37380;45.186;9.792;2022-09-01T17:28:48;100762.91;;;25.89;61.62
51297;BME280;37380;45.186;9.792;2022-09-01T17:31:30;100773.88;;;25.77;61.43
51297;BME280;37380;45.186;9.792;2022-09-01T17:34:05;100780.19;;;25.76;61.98
51297;BME280;37380;45.186;9.792;2022-09-01T17:39:35;100784.31;;;25.55;62.24
51297;BME280;37380;45.186;9.792;2022-09-01T17:47:59;100790.16;;;25.35;61.72
51297;BME280;37380;45.186;9.792;2022-09-01T17:50:38;100793.84;;;25.31;62.59
51297;BME280;37380;45.186;9.792;2022-09-01T18:05:43;100818.03;;;24.86;63.99
51297;BME280;37380;45.186;9.792;2022-09-01T18:08:46;100825.25;;;24.81;64.64
51297;BME280;37380;45.186;9.792;2022-09-01T18:14:32;100828.25;;;24.67;65.43
51297;BME280;37380;45.186;9.792;2022-09-01T18:17:28;100822.13;;;24.62;66.62
51297;BME280;37380;45.186;9.792;2022-09-01T18:20:08;100821.06;;;24.69;66.68
51297;BME280;37380;45.186;9.792;2022-09-01T18:23:10;100834.81;;;24.51;68.45
51297;BME280;37380;45.186;9.792;2022-09-01T18:29:07;100838.56;;;24.40;69.15
51297;BME280;37380;45.186;9.792;2022-09-01T18:34:49;100851.41;;;24.22;70.95
51297;BME280;37380;45.186;9.792;2022-09-01T18:46:38;100853.69;;;23.93;74.52
51297;BME280;37380;45.186;9.792;2022-09-01T18:56:05;100868.72;;;23.99;75.16
51297;BME280;37380;45.186;9.792;2022-09-01T19:20:50;100905.03;;;23.54;76.27
51297;BME280;37380;45.186;9.792;2022-09-01T19:24:05;100898.84;;;23.50;76.12
51297;BME280;37380;45.186;9.792;2022-09-01T19:27:14;100903.50;;;23.39;76.25
51297;BME280;37380;45.186;9.792;2022-09-01T19:30:09;100911.59;;;23.31;75.93
51297;BME280;37380;45.186;9.792;2022-09-01T19:32:36;100905.44;;;23.27;76.11
51297;BME280;37380;45.186;9.792;2022-09-01T19:37:31;100909.13;;;23.17;74.86
51297;BME280;37380;45.186;9.792;2022-09-01T19:40:05;100906.44;;;23.19;75.07
51297;BME280;37380;45.186;9.792;2022-09-01T19:43:12;100915.22;;;23.24;75.00
51297;BME280;37380;45.186;9.792;2022-09-01T19:46:16;100932.28;;;23.12;75.22
51297;BME280;37380;45.186;9.792;2022-09-01T19:58:32;100946.78;;;22.90;75.89
51297;BME280;37380;45.186;9.792;2022-09-01T20:05:21;100955.69;;;22.86;76.53
51297;BME280;37380;45.186;9.792;2022-09-01T20:07:54;100952.09;;;22.90;76.09
51297;BME280;37380;45.186;9.792;2022-09-01T20:11:31;100958.38;;;22.84;76.62
51297;BME280;37380;45.186;9.792;2022-09-01T20:16:56;100956.09;;;22.52;78.17
51297;BME280;37380;45.186;9.792;2022-09-01T20:22:34;100943.72;;;22.45;77.97
51297;BME280;37380;45.186;9.792;2022-09-01T20:25:27;100957.84;;;22.51;77.77
51297;BME280;37380;45.186;9.792;2022-09-01T20:31:37;100967.75;;;22.38;79.06
51297;BME280;37380;45.186;9.792;2022-09-01T20:34:49;100971.44;;;22.24;80.01
51297;BME280;37380;45.186;9.792;2022-09-01T20:37:46;100977.59;;;22.27;80.29
51297;BME280;37380;45.186;9.792;2022-09-01T20:40:22;100972.28;;;22.27;80.61
51297;BME280;37380;45.186;9.792;2022-09-01T20:43:26;100978.59;;;22.14;81.54
51297;BME280;37380;45.186;9.792;2022-09-01T20:46:29;100963.56;;;22.07;82.37
51297;BME280;37380;45.186;9.792;2022-09-01T20:49:33;100980.38;;;22.12;82.35
51297;BME280;37380;45.186;9.792;2022-09-01T20:55:40;100983.13;;;22.03;83.93
51297;BME280;37380;45.186;9.792;2022-09-01T20:58:45;100991.06;;;22.04;84.20
51297;BME280;37380;45.186;9.792;2022-09-01T21:01:57;100993.81;;;21.97;85.07
51297;BME280;37380;45.186;9.792;2022-09-01T21:08:24;101006.19;;;21.96;85.87
51297;BME280;37380;45.186;9.792;2022-09-01T21:11:12;101009.84;;;21.86;87.00
51297;BME280;37380;45.186;9.792;2022-09-01T21:17:33;101016.13;;;21.69;88.45
51297;BME280;37380;45.186;9.792;2022-09-01T21:23:47;101023.25;;;21.69;88.88
51297;BME280;37380;45.186;9.792;2022-09-01T21:26:41;101025.09;;;21.59;89.90
51297;BME280;37380;45.186;9.792;2022-09-01T21:29:19;101022.38;;;21.68;88.96
51297;BME280;37380;45.186;9.792;2022-09-01T21:32:22;101025.91;;;21.66;88.86
51297;BME280;37380;45.186;9.792;2022-09-01T21:35:17;101028.63;;;21.60;89.99
51297;BME280;37380;45.186;9.792;2022-09-01T21:37:44;101019.81;;;21.53;90.02
51297;BME280;37380;45.186;9.792;2022-09-01T21:40:19;101029.59;;;21.40;90.62
51297;BME280;37380;45.186;9.792;2022-09-01T21:43:24;101026.94;;;21.45;90.70
51297;BME280;37380;45.186;9.792;2022-09-01T21:46:21;101029.56;;;21.51;90.08
51297;BME280;37380;45.186;9.792;2022-09-01T21:48:48;101026.06;;;21.44;90.71
51297;BME280;37380;45.186;9.792;2022-09-01T21:51:21;101018.91;;;21.51;90.40
51297;BME280;37380;45.186;9.792;2022-09-01T21:54:22;101025.16;;;21.44;90.86
51297;BME280;37380;45.186;9.792;2022-09-01T21:57:16;101034.91;;;21.40;90.62
51297;BME280;37380;45.186;9.792;2022-09-01T21:59:43;101029.59;;;21.37;91.38
51297;BME280;37380;45.186;9.792;2022-09-01T22:02:09;101032.25;;;21.34;91.08
51297;BME280;37380;45.186;9.792;2022-09-01T22:04:37;101034.06;;;21.38;91.68
51297;BME280;37380;45.186;9.792;2022-09-01T22:07:04;101029.63;;;21.20;92.09
51297;BME280;37380;45.186;9.792;2022-09-01T22:09:39;101042.03;;;21.26;92.22
51297;BME280;37380;45.186;9.792;2022-09-01T22:12:36;101039.41;;;21.21;92.46
51297;BME280;37380;45.186;9.792;2022-09-01T22:15:10;101043.84;;;21.21;92.85
51297;BME280;37380;45.186;9.792;2022-09-01T22:18:05;101040.25;;;21.28;93.57
51297;BME280;37380;45.186;9.792;2022-09-01T22:20:32;101057.97;;;21.26;92.68
51297;BME280;37380;45.186;9.792;2022-09-01T22:23:00;101049.13;;;21.27;92.97
51297;BME280;37380;45.186;9.792;2022-09-01T22:25:30;101050.00;;;21.23;93.51
51297;BME280;37380;45.186;9.792;2022-09-01T22:28:04;101050.03;;;21.20;93.39
51297;BME280;37380;45.186;9.792;2022-09-01T22:31:05;101053.56;;;21.23;93.59
51297;BME280;37380;45.186;9.792;2022-09-01T22:33:59;101049.16;;;21.18;94.21
51297;BME280;37380;45.186;9.792;2022-09-01T22:36:27;101051.81;;;21.19;94.01
51297;BME280;37380;45.186;9.792;2022-09-01T22:38:55;101053.63;;;21.05;95.00
51297;BME280;37380;45.186;9.792;2022-09-01T22:41:24;101057.16;;;20.99;95.75
51297;BME280;37380;45.186;9.792;2022-09-01T22:43:52;101040.34;;;21.03;95.74
51297;BME280;37380;45.186;9.792;2022-09-01T22:46:19;101050.03;;;21.17;95.19
51297;BME280;37380;45.186;9.792;2022-09-01T22:48:47;101054.47;;;21.21;94.88
51297;BME280;37380;45.186;9.792;2022-09-01T22:51:21;101059.78;;;21.18;95.07
51297;BME280;37380;45.186;9.792;2022-09-01T22:54:15;101059.78;;;21.09;96.57
51297;BME280;37380;45.186;9.792;2022-09-01T22:56:49;101051.81;;;21.12;96.77
51297;BME280;37380;45.186;9.792;2022-09-01T22:59:43;101061.56;;;21.16;97.02
51297;BME280;37380;45.186;9.792;2022-09-01T23:02:16;101063.34;;;21.11;97.60
51297;BME280;37380;45.186;9.792;2022-09-01T23:05:10;101054.53;;;20.93;98.81
51297;BME280;37380;45.186;9.792;2022-09-01T23:07:37;101064.25;;;21.10;98.45
51297;BME280;37380;45.186;9.792;2022-09-01T23:10:05;101065.13;;;20.99;99.34
51297;BME280;37380;45.186;9.792;2022-09-01T23:12:33;101058.03;;;21.05;99.75
51297;BME280;37380;45.186;9.792;2022-09-01T23:15:07;101066.91;;;20.99;100.00
51297;BME280;37380;45.186;9.792;2022-09-01T23:18:01;101062.47;;;21.04;100.00
51297;BME280;37380;45.186;9.792;2022-09-01T23:20:27;101068.69;;;21.05;100.00
51297;BME280;37380;45.186;9.792;2022-09-01T23:22:55;101071.31;;;21.11;100.00
51297;BME280;37380;45.186;9.792;2022-09-01T23:25:22;101069.56;;;21.05;100.00
51297;BME280;37380;45.186;9.792;2022-09-01T23:27:56;101070.44;;;21.15;100.00
51297;BME280;37380;45.186;9.792;2022-09-01T23:30:57;101071.31;;;21.08;100.00
51297;BME280;37380;45.186;9.792;2022-09-01T23:33:52;101078.44;;;21.01;100.00
51297;BME280;37380;45.186;9.792;2022-09-01T23:36:21;101075.75;;;21.10;100.00
51297;BME280;37380;45.186;9.792;2022-09-01T23:38:48;101079.28;;;21.11;100.00
51297;BME280;37380;45.186;9.792;2022-09-01T23:41:22;101079.31;;;21.06;100.00
51297;BME280;37380;45.186;9.792;2022-09-01T23:43:50;101070.44;;;20.99;100.00
51297;BME280;37380;45.186;9.792;2022-09-01T23:46:18;101074.00;;;20.95;100.00
51297;BME280;37380;45.186;9.792;2022-09-01T23:48:45;101065.09;;;21.09;100.00
51297;BME280;37380;45.186;9.792;2022-09-01T23:51:19;101054.53;;;20.96;100.00
51297;BME280;37380;45.186;9.792;2022-09-01T23:54:13;101066.03;;;20.97;100.00
51297;BME280;37380;45.186;9.792;2022-09-01T23:56:40;101062.50;;;20.83;100.00
51297;BME280;37380;45.186;9.792;2022-09-01T23:59:13;101063.38;;;20.94;100.00
